Time;durP1;ratioP1;P1;durP2;ratioP2;P2;SDS_P1;SDS_P2;PMS_P1;PMS_P2;Temp;Humidity;BMP_temperature;BMP_pressure;BME280_temperature;BME280_humidity;BME280_pressure;Samples;Min_cycle;Max_cycle;Signal;HPM_P1;HPM_P2
2022/11/04 00:01:25;;;;;;;6.60;5.43;;;;;;;;;;5092973;28;20462;-66
2022/11/04 00:03:54;;;;;;;13.83;5.20;;;;;;;;;;5094112;28;20440;-66
2022/11/04 00:06:21;;;;;;;7.70;5.83;;;;;;;;;;5097290;28;20910;-66
2022/11/04 00:08:49;;;;;;;5.93;5.33;;;;;;;;;;5097079;28;20527;-65
2022/11/04 00:14:01;;;;;;;6.10;5.50;;;;;;;;;;5097137;28;20403;-66
2022/11/04 00:19:15;;;;;;;6.33;4.93;;;;;;;;;;5097125;28;20828;-66
2022/11/04 00:29:56;;;;;;;5.03;4.00;;;;;;;;;;5096654;28;20943;-66
2022/11/04 00:35:10;;;;;;;2.80;2.60;;;;;;;;;;5096650;28;20946;-66
2022/11/04 00:37:38;;;;;;;5.10;3.60;;;;;;;;;;5096836;28;20455;-66
2022/11/04 00:40:06;;;;;;;4.07;3.77;;;;;;;;;;5096850;28;20439;-66
2022/11/04 00:42:33;;;;;;;4.67;3.40;;;;;;;;;;5096679;28;20477;-66
2022/11/04 00:45:00;;;;;;;2.97;2.77;;;;;;;;;;5096266;28;20479;-65
2022/11/04 00:47:28;;;;;;;7.00;3.80;;;;;;;;;;5096551;28;20450;-66
2022/11/04 00:49:55;;;;;;;3.40;3.20;;;;;;;;;;5096261;28;20449;-66
2022/11/04 00:52:24;;;;;;;3.73;3.43;;;;;;;;;;5096203;28;20921;-65
2022/11/04 00:54:51;;;;;;;3.73;3.00;;;;;;;;;;5096188;28;20450;-66
2022/11/04 00:57:18;;;;;;;2.73;2.53;;;;;;;;;;5096022;28;20959;-66
2022/11/04 00:59:45;;;;;;;3.33;3.03;;;;;;;;;;5096701;28;20447;-65
2022/11/04 01:02:13;;;;;;;3.60;3.30;;;;;;;;;;5096080;28;20450;-65
2022/11/04 01:04:40;;;;;;;2.97;2.77;;;;;;;;;;5096251;28;20471;-65
2022/11/04 01:07:07;;;;;;;3.17;2.97;;;;;;;;;;5095875;28;20448;-66
2022/11/04 01:09:36;;;;;;;3.07;2.77;;;;;;;;;;5096377;28;20440;-65
2022/11/04 01:12:03;;;;;;;2.90;2.70;;;;;;;;;;5096126;28;20542;-66
2022/11/04 01:14:31;;;;;;;3.17;2.87;;;;;;;;;;5095665;28;20445;-66
2022/11/04 01:16:58;;;;;;;3.60;3.10;;;;;;;;;;5095695;28;20444;-65
2022/11/04 01:19:25;;;;;;;7.33;3.63;;;;;;;;;;5095733;28;20432;-65
2022/11/04 01:21:52;;;;;;;3.20;2.90;;;;;;;;;;5095911;28;20447;-66
2022/11/04 01:24:20;;;;;;;4.20;3.80;;;;;;;;;;5095519;28;20471;-66
2022/11/04 01:26:48;;;;;;;7.63;4.30;;;;;;;;;;5096258;28;20804;-66
2022/11/04 01:29:15;;;;;;;4.20;3.80;;;;;;;;;;5096039;28;20531;-65
2022/11/04 01:31:43;;;;;;;5.27;4.77;;;;;;;;;;5095385;28;20451;-66
2022/11/04 01:34:10;;;;;;;5.53;5.03;;;;;;;;;;5095741;28;20589;-65
2022/11/04 01:36:37;;;;;;;7.50;4.70;;;;;;;;;;5095617;28;20431;-65
2022/11/04 01:39:04;;;;;;;5.30;4.90;;;;;;;;;;5095758;28;20864;-66
2022/11/04 01:41:33;;;;;;;6.43;5.83;;;;;;;;;;5095146;28;20527;-65
2022/11/04 01:44:02;;;;;;;5.37;4.87;;;;;;;;;;5095725;28;20523;-66
2022/11/04 01:46:32;;;;;;;6.17;5.53;;;;;;;;;;5095987;28;20479;-65
2022/11/04 01:49:02;;;;;;;5.93;5.43;;;;;;;;;;5095311;28;20960;-66
2022/11/04 01:51:31;;;;;;;6.60;6.10;;;;;;;;;;5106693;28;20973;-65
2022/11/04 01:53:58;;;;;;;8.30;5.57;;;;;;;;;;5115711;28;20541;-65
2022/11/04 01:56:27;;;;;;;6.40;5.80;;;;;;;;;;5116085;28;20801;-65
2022/11/04 01:58:56;;;;;;;6.77;6.07;;;;;;;;;;5115586;28;20207;-66
2022/11/04 02:01:25;;;;;;;6.37;5.77;;;;;;;;;;5115134;28;20446;-65
2022/11/04 02:03:53;;;;;;;7.50;5.80;;;;;;;;;;5115541;28;20445;-66
2022/11/04 02:06:21;;;;;;;5.77;5.27;;;;;;;;;;5115365;28;20496;-66
2022/11/04 02:08:49;;;;;;;7.33;5.80;;;;;;;;;;5115537;28;20478;-66
2022/11/04 02:13:57;;;;;;;6.23;5.60;;;;;;;;;;5114783;28;20908;-66
2022/11/04 02:16:29;;;;;;;6.47;5.00;;;;;;;;;;5115211;28;20442;-66
2022/11/04 02:19:04;;;;;;;6.63;5.50;;;;;;;;;;5115757;28;20540;-66
2022/11/04 02:21:49;;;;;;;6.33;5.70;;;;;;;;;;5115232;28;20199;-65
2022/11/04 02:24:25;;;;;;;5.90;5.40;;;;;;;;;;5115245;28;20457;-66
2022/11/04 02:27:10;;;;;;;5.80;5.30;;;;;;;;;;5114112;28;20969;-66
2022/11/04 02:29:49;;;;;;;5.83;5.27;;;;;;;;;;5115301;28;20430;-66
2022/11/04 02:32:20;;;;;;;5.63;5.13;;;;;;;;;;5114798;28;20965;-66
2022/11/04 02:34:54;;;;;;;6.40;5.80;;;;;;;;;;5115836;28;20445;-66
2022/11/04 02:37:26;;;;;;;6.67;6.07;;;;;;;;;;5114722;28;20442;-66
2022/11/04 02:39:56;;;;;;;7.47;6.60;;;;;;;;;;5115015;28;20439;-66
2022/11/04 02:42:26;;;;;;;7.13;6.53;;;;;;;;;;5114737;28;20568;-66
2022/11/04 02:44:59;;;;;;;6.93;6.23;;;;;;;;;;5115189;28;20975;-66
2022/11/04 02:47:28;;;;;;;8.97;7.10;;;;;;;;;;5115504;28;20783;-66
2022/11/04 02:49:58;;;;;;;7.77;6.97;;;;;;;;;;5114757;28;20531;-66
2022/11/04 02:52:28;;;;;;;6.57;5.93;;;;;;;;;;5114605;28;20785;-66
2022/11/04 02:54:57;;;;;;;7.83;6.57;;;;;;;;;;5114978;28;20779;-66
2022/11/04 02:57:26;;;;;;;7.17;6.57;;;;;;;;;;5114453;28;20538;-66
2022/11/04 02:59:55;;;;;;;7.83;7.03;;;;;;;;;;5114500;28;20438;-66
2022/11/04 03:02:27;;;;;;;9.87;7.27;;;;;;;;;;5114384;28;20450;-66
2022/11/04 03:04:55;;;;;;;7.80;7.00;;;;;;;;;;5115101;28;20891;-66
2022/11/04 03:07:24;;;;;;;7.23;6.60;;;;;;;;;;5114221;28;20969;-66
2022/11/04 03:09:53;;;;;;;8.50;7.70;;;;;;;;;;5114116;28;20449;-67
2022/11/04 03:12:23;;;;;;;8.87;7.97;;;;;;;;;;5114226;28;20933;-66
2022/11/04 03:14:53;;;;;;;7.93;7.13;;;;;;;;;;5114670;28;20446;-66
2022/11/04 03:17:22;;;;;;;8.97;8.07;;;;;;;;;;5114137;28;20469;-66
2022/11/04 03:19:54;;;;;;;9.83;8.80;;;;;;;;;;5114181;28;20436;-66
2022/11/04 03:22:22;;;;;;;10.17;9.10;;;;;;;;;;5113854;28;20435;-66
2022/11/04 03:24:50;;;;;;;8.93;7.40;;;;;;;;;;5114080;28;20434;-66
2022/11/04 03:27:22;;;;;;;10.93;8.20;;;;;;;;;;5114454;28;20795;-67
2022/11/04 03:29:54;;;;;;;9.33;8.43;;;;;;;;;;5113762;28;20431;-66
2022/11/04 03:32:24;;;;;;;10.03;9.00;;;;;;;;;;5114085;28;20427;-66
2022/11/04 03:34:53;;;;;;;10.53;9.40;;;;;;;;;;5114124;28;20514;-67
2022/11/04 03:37:20;;;;;;;9.33;8.10;;;;;;;;;;5113416;28;20939;-66
2022/11/04 03:39:47;;;;;;;9.53;7.77;;;;;;;;;;5113852;28;20443;-66
2022/11/04 03:42:21;;;;;;;9.47;8.13;;;;;;;;;;5113324;28;21009;-66
2022/11/04 03:44:49;;;;;;;10.07;8.90;;;;;;;;;;5113416;28;20908;-67
2022/11/04 03:47:17;;;;;;;8.57;6.97;;;;;;;;;;5114605;28;20442;-66
2022/11/04 03:49:45;;;;;;;9.00;7.87;;;;;;;;;;5113407;28;20924;-66
2022/11/04 03:52:14;;;;;;;9.10;8.07;;;;;;;;;;5113498;28;20958;-66
2022/11/04 03:54:41;;;;;;;10.20;7.87;;;;;;;;;;5113355;28;20940;-66
2022/11/04 03:57:15;;;;;;;9.57;6.80;;;;;;;;;;5113442;28;20537;-66
2022/11/04 04:00:03;;;;;;;7.37;6.20;;;;;;;;;;5113741;28;20427;-67
2022/11/04 04:02:35;;;;;;;8.03;6.60;;;;;;;;;;5109132;28;20500;-67
2022/11/04 04:05:07;;;;;;;7.70;6.40;;;;;;;;;;5113547;28;20426;-67
2022/11/04 04:07:38;;;;;;;7.67;6.37;;;;;;;;;;5113381;28;20472;-66
2022/11/04 04:10:37;;;;;;;12.00;5.93;;;;;;;;;;5113264;28;20427;-66
2022/11/04 04:12:57;;;;;;;8.33;6.40;;;;;;;;;;5113061;28;20450;-66
2022/11/04 04:15:27;;;;;;;8.63;6.60;;;;;;;;;;5113256;28;20453;-66
2022/11/04 04:17:56;;;;;;;8.07;5.63;;;;;;;;;;5113888;28;20442;-66
2022/11/04 04:20:24;;;;;;;7.73;6.93;;;;;;;;;;5113504;28;20533;-66
2022/11/04 04:22:55;;;;;;;11.33;6.50;;;;;;;;;;5113188;28;20445;-66
2022/11/04 04:28:10;;;;;;;6.60;6.00;;;;;;;;;;5113270;28;20819;-67
2022/11/04 04:30:37;;;;;;;6.63;5.77;;;;;;;;;;5113447;28;20445;-67
2022/11/04 04:33:07;;;;;;;7.83;6.23;;;;;;;;;;5113394;28;20628;-66
2022/11/04 04:35:44;;;;;;;6.50;5.70;;;;;;;;;;5113032;28;20450;-65
2022/11/04 04:46:33;;;;;;;9.53;6.30;;;;;;;;;;5113048;28;20457;-67
2022/11/04 04:49:04;;;;;;;7.33;5.80;;;;;;;;;;5113268;28;20534;-66
2022/11/04 04:51:32;;;;;;;7.97;6.10;;;;;;;;;;5117068;28;20419;-66
2022/11/04 04:54:00;;;;;;;4.97;4.40;;;;;;;;;;5116497;28;20438;-67
2022/11/04 04:56:27;;;;;;;9.43;5.90;;;;;;;;;;5116779;28;20443;-67
2022/11/04 04:58:54;;;;;;;6.90;6.20;;;;;;;;;;5116495;28;20439;-66
2022/11/04 05:01:22;;;;;;;6.17;5.20;;;;;;;;;;5116426;28;20972;-66
2022/11/04 05:03:49;;;;;;;8.13;5.87;;;;;;;;;;5116645;28;20443;-66
2022/11/04 05:06:16;;;;;;;10.63;5.90;;;;;;;;;;5116685;28;20485;-67
2022/11/04 05:08:43;;;;;;;8.53;6.40;;;;;;;;;;5116341;28;20435;-67
2022/11/04 05:11:12;;;;;;;10.00;5.47;;;;;;;;;;5116575;28;20441;-66
2022/11/04 05:13:39;;;;;;;10.20;5.73;;;;;;;;;;5116675;28;20800;-66
2022/11/04 05:16:07;;;;;;;8.60;5.50;;;;;;;;;;5116407;28;20434;-68
2022/11/04 05:18:34;;;;;;;9.70;6.10;;;;;;;;;;5116428;28;20452;-67
2022/11/04 05:21:03;;;;;;;8.70;5.60;;;;;;;;;;5116319;28;20436;-67
2022/11/04 05:23:31;;;;;;;6.30;5.70;;;;;;;;;;5116225;28;20866;-66
2022/11/04 05:25:59;;;;;;;6.03;5.47;;;;;;;;;;5116140;28;20481;-67
2022/11/04 05:28:27;;;;;;;6.80;6.13;;;;;;;;;;5116509;28;20799;-67
2022/11/04 05:30:54;;;;;;;8.90;6.90;;;;;;;;;;5116144;28;20445;-67
2022/11/04 05:33:22;;;;;;;19.73;6.53;;;;;;;;;;5116071;28;20816;-66
2022/11/04 05:35:49;;;;;;;13.57;5.90;;;;;;;;;;5115963;28;20468;-66
2022/11/04 05:38:16;;;;;;;7.77;5.20;;;;;;;;;;5116094;28;20449;-66
2022/11/04 05:40:43;;;;;;;10.97;5.53;;;;;;;;;;5115574;28;20442;-66
2022/11/04 05:43:10;;;;;;;6.70;4.90;;;;;;;;;;5115218;28;20466;-66
2022/11/04 05:45:39;;;;;;;6.73;5.77;;;;;;;;;;5115296;28;20481;-67
2022/11/04 05:48:06;;;;;;;12.67;5.60;;;;;;;;;;5115539;28;21078;-67
2022/11/04 05:50:34;;;;;;;8.10;5.43;;;;;;;;;;5115611;28;20522;-67
2022/11/04 05:53:01;;;;;;;6.97;6.27;;;;;;;;;;5115341;28;20440;-67
2022/11/04 05:55:28;;;;;;;10.30;5.73;;;;;;;;;;5115349;28;20445;-67
2022/11/04 05:57:58;;;;;;;10.40;5.80;;;;;;;;;;5116291;28;20443;-67
2022/11/04 06:00:25;;;;;;;12.50;6.13;;;;;;;;;;5115758;28;20845;-67
2022/11/04 06:02:55;;;;;;;9.20;5.70;;;;;;;;;;5115587;28;20443;-67
2022/11/04 06:05:23;;;;;;;8.90;6.07;;;;;;;;;;5115414;28;20427;-67
2022/11/04 06:07:50;;;;;;;7.60;5.60;;;;;;;;;;5115157;28;20442;-67
2022/11/04 06:10:17;;;;;;;7.53;4.90;;;;;;;;;;5115391;28;20481;-66
2022/11/04 06:12:44;;;;;;;11.70;5.13;;;;;;;;;;5114967;28;20447;-65
2022/11/04 06:15:12;;;;;;;14.30;5.90;;;;;;;;;;5114875;28;20449;-66
2022/11/04 06:17:39;;;;;;;7.90;5.67;;;;;;;;;;5115575;28;20799;-67
2022/11/04 06:20:08;;;;;;;7.47;5.10;;;;;;;;;;5115169;28;20531;-68
2022/11/04 06:22:35;;;;;;;6.10;4.47;;;;;;;;;;5115303;28;20521;-67
2022/11/04 06:25:02;;;;;;;7.40;5.03;;;;;;;;;;5114940;28;20449;-67
2022/11/04 06:27:30;;;;;;;13.13;5.03;;;;;;;;;;5115108;28;20886;-67
2022/11/04 06:29:57;;;;;;;6.07;4.60;;;;;;;;;;5115057;27;20928;-66
2022/11/04 06:32:24;;;;;;;7.40;4.57;;;;;;;;;;5115007;28;20521;-68
2022/11/04 06:34:51;;;;;;;7.07;5.07;;;;;;;;;;5115332;28;20435;-67
2022/11/04 06:37:20;;;;;;;10.93;4.73;;;;;;;;;;5114891;28;20449;-67
2022/11/04 06:39:47;;;;;;;7.93;4.70;;;;;;;;;;5114684;28;20461;-68
2022/11/04 06:42:14;;;;;;;16.97;5.37;;;;;;;;;;5114564;28;20476;-68
2022/11/04 06:44:41;;;;;;;11.20;4.80;;;;;;;;;;5114311;28;20439;-67
2022/11/04 06:47:08;;;;;;;8.10;5.50;;;;;;;;;;5114278;28;20556;-67
2022/11/04 06:49:36;;;;;;;10.90;5.93;;;;;;;;;;5114683;28;20518;-67
2022/11/04 06:52:03;;;;;;;8.10;4.80;;;;;;;;;;5114742;28;20441;-67
2022/11/04 06:54:31;;;;;;;8.10;4.80;;;;;;;;;;5114462;28;20993;-67
2022/11/04 06:56:58;;;;;;;11.77;5.33;;;;;;;;;;5114474;28;20445;-68
2022/11/04 06:59:26;;;;;;;8.10;5.60;;;;;;;;;;5114542;28;20441;-67
2022/11/04 07:01:53;;;;;;;9.83;5.70;;;;;;;;;;5114285;28;20530;-67
2022/11/04 07:04:20;;;;;;;6.23;5.63;;;;;;;;;;5114125;28;20445;-67
2022/11/04 07:06:47;;;;;;;6.70;6.00;;;;;;;;;;5114266;28;20489;-68
2022/11/04 07:09:15;;;;;;;10.27;6.40;;;;;;;;;;5114287;27;20451;-68
2022/11/04 07:11:44;;;;;;;12.90;5.57;;;;;;;;;;5114619;27;20449;-68
2022/11/04 07:14:12;;;;;;;8.77;5.70;;;;;;;;;;5113613;28;20447;-68
2022/11/04 07:16:39;;;;;;;9.43;6.33;;;;;;;;;;5113940;28;20476;-68
2022/11/04 07:19:07;;;;;;;10.87;6.47;;;;;;;;;;5113954;28;20861;-67
2022/11/04 07:21:34;;;;;;;8.20;5.50;;;;;;;;;;5113574;28;20443;-67
2022/11/04 07:24:02;;;;;;;12.93;6.20;;;;;;;;;;5113629;28;20443;-67
2022/11/04 07:26:29;;;;;;;11.77;5.60;;;;;;;;;;5113901;28;20475;-66
2022/11/04 07:28:59;;;;;;;9.00;5.90;;;;;;;;;;5113824;28;20522;-67
2022/11/04 07:31:26;;;;;;;9.33;5.90;;;;;;;;;;5114190;28;20434;-67
2022/11/04 07:33:54;;;;;;;12.43;6.40;;;;;;;;;;5114366;28;20790;-67
2022/11/04 07:36:21;;;;;;;10.60;6.97;;;;;;;;;;5113904;28;20435;-67
2022/11/04 07:38:49;;;;;;;7.20;6.50;;;;;;;;;;5113620;28;20438;-68
2022/11/04 07:41:16;;;;;;;13.20;6.53;;;;;;;;;;5113549;28;20442;-67
2022/11/04 07:43:44;;;;;;;10.33;5.67;;;;;;;;;;5113684;28;20478;-67
2022/11/04 07:46:13;;;;;;;12.43;6.80;;;;;;;;;;5113407;28;20489;-68
2022/11/04 07:48:41;;;;;;;11.40;7.63;;;;;;;;;;5113800;28;20457;-68
2022/11/04 07:51:09;;;;;;;10.83;5.60;;;;;;;;;;5113720;28;20965;-67
2022/11/04 07:53:36;;;;;;;8.83;5.87;;;;;;;;;;5113376;28;20517;-67
2022/11/04 07:56:04;;;;;;;16.57;5.87;;;;;;;;;;5113274;28;20931;-67
2022/11/04 07:58:31;;;;;;;6.83;5.60;;;;;;;;;;5113465;28;20439;-67
2022/11/04 08:00:59;;;;;;;12.37;6.30;;;;;;;;;;5113650;28;20526;-67
2022/11/04 08:03:27;;;;;;;7.47;5.00;;;;;;;;;;5114090;28;20784;-67
2022/11/04 08:05:58;;;;;;;9.20;5.37;;;;;;;;;;5113263;28;20453;-67
2022/11/04 08:08:25;;;;;;;12.20;5.80;;;;;;;;;;5113788;28;20445;-67
2022/11/04 08:10:53;;;;;;;7.20;4.83;;;;;;;;;;5113287;28;20474;-68
2022/11/04 08:13:20;;;;;;;11.10;5.70;;;;;;;;;;5113219;28;20462;-67
2022/11/04 08:15:48;;;;;;;8.73;5.10;;;;;;;;;;5113716;28;20895;-67
2022/11/04 08:18:15;;;;;;;8.23;4.67;;;;;;;;;;5113890;28;20442;-66
2022/11/04 08:20:47;;;;;;;8.23;5.37;;;;;;;;;;5113215;28;20521;-67
2022/11/04 08:23:14;;;;;;;12.50;5.40;;;;;;;;;;5113443;28;20435;-67
2022/11/04 08:25:41;;;;;;;11.23;4.37;;;;;;;;;;5115472;28;20529;-67
2022/11/04 08:28:11;;;;;;;13.13;5.37;;;;;;;;;;5116919;28;20474;-67
2022/11/04 08:30:39;;;;;;;6.33;4.63;;;;;;;;;;5117105;28;20936;-67
2022/11/04 08:33:06;;;;;;;10.67;5.60;;;;;;;;;;5117336;28;20446;-68
2022/11/04 08:35:35;;;;;;;10.37;4.90;;;;;;;;;;5117916;28;20875;-68
2022/11/04 08:38:03;;;;;;;5.53;4.13;;;;;;;;;;5117159;27;20453;-67
2022/11/04 08:40:32;;;;;;;8.17;5.70;;;;;;;;;;5117322;28;20451;-67
2022/11/04 08:42:59;;;;;;;13.37;4.07;;;;;;;;;;5116981;28;20482;-67
2022/11/04 08:45:26;;;;;;;7.83;5.03;;;;;;;;;;5117282;28;20461;-67
2022/11/04 08:47:53;;;;;;;7.50;4.43;;;;;;;;;;5116933;28;20466;-68
2022/11/04 08:50:26;;;;;;;11.03;4.80;;;;;;;;;;5117192;28;20443;-67
2022/11/04 08:52:53;;;;;;;14.37;5.00;;;;;;;;;;5116979;28;20513;-67
2022/11/04 08:55:22;;;;;;;10.67;5.00;;;;;;;;;;5116928;28;20448;-67
2022/11/04 08:57:49;;;;;;;10.03;5.17;;;;;;;;;;5116962;28;20482;-67
2022/11/04 09:00:17;;;;;;;13.47;5.57;;;;;;;;;;5116470;27;20525;-67
2022/11/04 09:02:44;;;;;;;10.00;4.87;;;;;;;;;;5116667;27;20438;-67
2022/11/04 09:05:12;;;;;;;10.17;4.87;;;;;;;;;;5117105;28;20442;-67
2022/11/04 09:07:40;;;;;;;7.30;4.60;;;;;;;;;;5117055;28;20482;-67
2022/11/04 09:10:08;;;;;;;14.03;5.30;;;;;;;;;;5116430;28;20464;-67
2022/11/04 09:12:36;;;;;;;16.10;4.77;;;;;;;;;;5116860;28;20462;-67
2022/11/04 09:15:04;;;;;;;8.43;4.00;;;;;;;;;;5116972;28;20950;-67
2022/11/04 09:17:32;;;;;;;10.17;4.83;;;;;;;;;;5116157;28;20959;-67
2022/11/04 09:19:59;;;;;;;10.10;5.10;;;;;;;;;;5116155;28;20473;-67
2022/11/04 09:22:26;;;;;;;5.53;4.47;;;;;;;;;;5116044;28;20447;-68
2022/11/04 09:24:54;;;;;;;9.03;4.97;;;;;;;;;;5116605;28;20447;-68
2022/11/04 09:27:21;;;;;;;10.47;3.77;;;;;;;;;;5116211;28;20567;-67
2022/11/04 09:29:49;;;;;;;6.43;4.13;;;;;;;;;;5116186;28;20950;-67
2022/11/04 09:32:17;;;;;;;6.50;4.30;;;;;;;;;;5115821;28;20537;-67
2022/11/04 09:34:44;;;;;;;7.63;4.13;;;;;;;;;;5115814;28;20438;-67
2022/11/04 09:37:11;;;;;;;7.87;4.00;;;;;;;;;;5115779;28;20549;-68
2022/11/04 09:39:38;;;;;;;10.17;4.40;;;;;;;;;;5116145;28;20526;-68
2022/11/04 09:42:18;;;;;;;5.67;3.60;;;;;;;;;;5115861;28;20476;-67
2022/11/04 09:44:49;;;;;;;12.50;4.03;;;;;;;;;;5116064;28;20427;-67
2022/11/04 09:47:18;;;;;;;7.00;4.17;;;;;;;;;;5116043;28;20815;-68
2022/11/04 09:49:46;;;;;;;11.53;3.93;;;;;;;;;;5115902;28;20531;-67
2022/11/04 09:52:17;;;;;;;6.90;4.00;;;;;;;;;;5115745;27;20449;-67
2022/11/04 09:54:49;;;;;;;10.07;4.10;;;;;;;;;;5115899;28;20435;-67
2022/11/04 09:57:17;;;;;;;8.03;3.47;;;;;;;;;;5116258;28;20466;-67
2022/11/04 09:59:45;;;;;;;17.97;5.47;;;;;;;;;;5115411;28;20441;-67
2022/11/04 10:02:37;;;;;;;13.73;5.33;;;;;;;;;;5115500;28;20447;-67
2022/11/04 10:05:11;;;;;;;15.97;6.23;;;;;;;;;;5115251;28;20495;-67
2022/11/04 10:07:54;;;;;;;21.07;6.90;;;;;;;;;;5115180;28;20466;-67
2022/11/04 10:13:30;;;;;;;13.73;6.83;;;;;;;;;;5115042;28;20446;-67
2022/11/04 10:16:09;;;;;;;15.87;7.20;;;;;;;;;;5115532;28;20461;-67
2022/11/04 10:18:43;;;;;;;10.07;5.90;;;;;;;;;;5114955;28;20474;-67
2022/11/04 10:21:19;;;;;;;11.00;5.90;;;;;;;;;;5115081;28;20918;-67
2022/11/04 10:23:49;;;;;;;10.10;5.40;;;;;;;;;;5114888;28;20521;-68
2022/11/04 10:26:18;;;;;;;7.33;4.27;;;;;;;;;;5115646;28;20446;-67
2022/11/04 10:28:48;;;;;;;9.30;5.53;;;;;;;;;;5115000;28;20520;-68
2022/11/04 10:31:17;;;;;;;10.70;3.70;;;;;;;;;;5114855;28;20428;-68
2022/11/04 10:33:46;;;;;;;20.40;5.60;;;;;;;;;;5114969;28;20496;-67
2022/11/04 10:36:15;;;;;;;8.23;4.77;;;;;;;;;;5115006;28;20534;-68
2022/11/04 10:38:44;;;;;;;11.13;3.80;;;;;;;;;;5115050;28;20458;-67
2022/11/04 10:41:28;;;;;;;7.43;3.80;;;;;;;;;;5114613;28;20525;-67
2022/11/04 10:43:58;;;;;;;9.40;3.90;;;;;;;;;;5114541;28;20428;-67
2022/11/04 10:46:32;;;;;;;9.53;3.87;;;;;;;;;;5114891;28;20451;-67
2022/11/04 10:49:02;;;;;;;9.50;3.17;;;;;;;;;;5114233;28;20861;-67
2022/11/04 10:51:31;;;;;;;9.27;4.10;;;;;;;;;;5114912;28;20462;-67
2022/11/04 10:53:59;;;;;;;5.13;3.70;;;;;;;;;;5114238;28;20937;-67
2022/11/04 10:56:32;;;;;;;11.70;3.70;;;;;;;;;;5114659;28;20529;-67
2022/11/04 10:59:01;;;;;;;9.13;4.50;;;;;;;;;;5114213;28;20439;-67
2022/11/04 11:01:30;;;;;;;5.43;2.90;;;;;;;;;;5114689;28;20434;-67
2022/11/04 11:03:58;;;;;;;6.70;3.70;;;;;;;;;;5114444;28;20442;-68
2022/11/04 11:06:26;;;;;;;7.87;3.40;;;;;;;;;;5114322;28;20448;-67
2022/11/04 11:08:56;;;;;;;4.90;2.50;;;;;;;;;;5114267;28;20474;-66
2022/11/04 11:11:40;;;;;;;7.30;2.80;;;;;;;;;;5113691;28;20438;-67
2022/11/04 11:14:17;;;;;;;5.00;2.33;;;;;;;;;;5114535;28;20439;-67
2022/11/04 11:16:45;;;;;;;5.77;3.40;;;;;;;;;;5114496;28;20426;-67
2022/11/04 11:19:16;;;;;;;6.23;3.17;;;;;;;;;;5113874;28;20770;-67
2022/11/04 11:21:46;;;;;;;7.60;3.27;;;;;;;;;;5113571;28;20438;-67
2022/11/04 11:24:16;;;;;;;14.77;3.17;;;;;;;;;;5113860;28;20435;-66
2022/11/04 11:26:47;;;;;;;5.47;3.40;;;;;;;;;;5113659;28;20972;-67
2022/11/04 11:29:20;;;;;;;4.17;3.60;;;;;;;;;;5113874;28;20470;-67
2022/11/04 11:31:48;;;;;;;2.60;2.30;;;;;;;;;;5113639;28;20992;-67
2022/11/04 11:34:16;;;;;;;7.50;2.37;;;;;;;;;;5113764;28;20542;-66
2022/11/04 11:36:46;;;;;;;9.33;3.33;;;;;;;;;;5113714;28;20527;-66
2022/11/04 11:39:20;;;;;;;5.97;3.10;;;;;;;;;;5113285;28;20522;-66
2022/11/04 11:41:57;;;;;;;8.33;2.97;;;;;;;;;;5113531;28;20500;-66
2022/11/04 11:44:27;;;;;;;11.07;2.80;;;;;;;;;;5113730;28;20455;-67
2022/11/04 11:46:55;;;;;;;3.60;2.70;;;;;;;;;;5113694;28;20913;-66
2022/11/04 11:49:27;;;;;;;7.97;2.50;;;;;;;;;;5113141;28;20440;-67
2022/11/04 11:51:55;;;;;;;6.40;2.80;;;;;;;;;;5113174;28;20937;-66
2022/11/04 11:54:27;;;;;;;9.93;3.67;;;;;;;;;;5113894;28;20440;-66
2022/11/04 11:56:55;;;;;;;4.70;3.07;;;;;;;;;;5113828;28;20809;-67
2022/11/04 11:59:33;;;;;;;5.43;3.40;;;;;;;;;;5115302;28;20445;-68
2022/11/04 12:02:05;;;;;;;8.57;3.20;;;;;;;;;;5118175;28;20538;-67
2022/11/04 12:04:32;;;;;;;3.43;2.17;;;;;;;;;;5117708;28;20432;-68
2022/11/04 12:07:03;;;;;;;8.43;3.30;;;;;;;;;;5117688;28;20443;-67
2022/11/04 12:09:35;;;;;;;12.87;3.70;;;;;;;;;;5117743;28;20426;-67
2022/11/04 12:12:09;;;;;;;16.77;3.40;;;;;;;;;;5117479;28;20809;-67
2022/11/04 12:14:43;;;;;;;4.10;2.70;;;;;;;;;;5117543;28;20515;-67
2022/11/04 12:17:19;;;;;;;9.20;3.53;;;;;;;;;;5117610;28;20427;-67
2022/11/04 12:19:50;;;;;;;11.33;4.77;;;;;;;;;;5117081;28;20429;-67
2022/11/04 12:22:25;;;;;;;7.67;3.60;;;;;;;;;;5117750;28;20781;-67
2022/11/04 12:24:56;;;;;;;6.87;3.80;;;;;;;;;;5117415;28;20423;-67
2022/11/04 12:27:29;;;;;;;6.27;3.50;;;;;;;;;;5117188;28;20518;-67
2022/11/04 12:30:02;;;;;;;6.40;3.90;;;;;;;;;;5117065;28;20439;-66
2022/11/04 12:32:33;;;;;;;7.60;4.07;;;;;;;;;;5117325;28;20784;-67
2022/11/04 12:35:06;;;;;;;4.50;3.50;;;;;;;;;;5117175;28;20442;-66
2022/11/04 12:37:36;;;;;;;8.57;3.80;;;;;;;;;;5117074;28;20447;-67
2022/11/04 12:40:16;;;;;;;14.30;5.10;;;;;;;;;;5117400;28;20538;-67
2022/11/04 12:42:51;;;;;;;18.00;4.20;;;;;;;;;;5116333;28;20839;-67
2022/11/04 12:45:23;;;;;;;9.27;4.13;;;;;;;;;;5116431;28;20518;-67
2022/11/04 12:47:50;;;;;;;7.37;3.10;;;;;;;;;;5116824;28;20474;-68
2022/11/04 12:50:45;;;;;;;7.90;3.70;;;;;;;;;;5116387;28;20532;-68
2022/11/04 12:53:17;;;;;;;9.00;3.20;;;;;;;;;;5080939;28;20453;-69
2022/11/04 12:55:50;;;;;;;7.10;3.57;;;;;;;;;;5117031;28;20429;-67
2022/11/04 12:58:25;;;;;;;4.83;3.83;;;;;;;;;;5117291;28;20518;-67
2022/11/04 13:00:55;;;;;;;7.30;3.53;;;;;;;;;;5116978;27;20420;-68
2022/11/04 13:03:29;;;;;;;6.50;2.47;;;;;;;;;;5116990;27;20451;-67
2022/11/04 13:05:59;;;;;;;8.00;3.00;;;;;;;;;;5116655;28;20755;-67
2022/11/04 13:08:29;;;;;;;5.97;2.90;;;;;;;;;;5116767;28;20567;-67
2022/11/04 13:10:59;;;;;;;6.23;2.43;;;;;;;;;;5115355;28;20424;-67
2022/11/04 13:13:32;;;;;;;3.43;2.70;;;;;;;;;;5116780;28;20440;-68
2022/11/04 13:16:02;;;;;;;6.73;3.30;;;;;;;;;;5116768;28;20431;-68
2022/11/04 13:18:32;;;;;;;5.93;2.53;;;;;;;;;;5116238;28;20436;-67
2022/11/04 13:21:03;;;;;;;6.60;3.50;;;;;;;;;;5116412;28;20439;-67
2022/11/04 13:23:35;;;;;;;8.47;3.70;;;;;;;;;;5116890;28;20785;-67
2022/11/04 13:26:05;;;;;;;8.47;3.50;;;;;;;;;;5115990;28;20519;-67
2022/11/04 13:28:32;;;;;;;15.03;3.60;;;;;;;;;;5115936;28;20555;-67
2022/11/04 13:31:03;;;;;;;6.20;3.53;;;;;;;;;;5117009;28;20448;-68
2022/11/04 13:33:34;;;;;;;9.87;4.10;;;;;;;;;;5116474;28;20511;-67
2022/11/04 13:36:02;;;;;;;7.70;3.60;;;;;;;;;;5115851;28;20512;-68
2022/11/04 13:38:32;;;;;;;9.13;3.87;;;;;;;;;;5116242;28;20506;-66
2022/11/04 13:41:06;;;;;;;6.50;3.73;;;;;;;;;;5115673;28;20530;-67
2022/11/04 13:43:39;;;;;;;12.43;3.60;;;;;;;;;;5115287;28;20471;-66
2022/11/04 13:46:16;;;;;;;6.60;3.73;;;;;;;;;;5115580;28;20515;-67
2022/11/04 13:48:51;;;;;;;10.70;3.97;;;;;;;;;;5115278;28;20560;-65
2022/11/04 13:51:19;;;;;;;10.23;4.17;;;;;;;;;;5115614;28;20465;-66
2022/11/04 13:53:47;;;;;;;9.47;3.90;;;;;;;;;;5115655;28;20448;-66
2022/11/04 13:56:28;;;;;;;6.63;3.10;;;;;;;;;;5115908;28;20470;-65
2022/11/04 13:58:57;;;;;;;5.23;4.10;;;;;;;;;;5115292;28;20990;-66
2022/11/04 14:01:29;;;;;;;7.90;2.83;;;;;;;;;;5115401;28;20527;-66
2022/11/04 14:04:02;;;;;;;6.50;3.43;;;;;;;;;;5114442;28;20444;-65
2022/11/04 14:06:50;;;;;;;6.00;3.20;;;;;;;;;;5115233;27;20485;-66
2022/11/04 14:09:37;;;;;;;42.83;15.57;;;;;;;;;;5114829;28;21011;-66
2022/11/04 14:12:23;;;;;;;7.33;3.67;;;;;;;;;;5114834;28;20445;-65
2022/11/04 14:14:52;;;;;;;7.23;3.33;;;;;;;;;;5115692;28;20929;-66
2022/11/04 14:17:41;;;;;;;10.73;3.30;;;;;;;;;;5114582;28;20451;-66
2022/11/04 14:20:10;;;;;;;7.47;3.23;;;;;;;;;;5081090;28;20457;-67
2022/11/04 14:22:46;;;;;;;5.40;3.03;;;;;;;;;;5113393;28;20492;-66
2022/11/04 14:25:21;;;;;;;7.50;3.00;;;;;;;;;;5115167;28;20424;-66
2022/11/04 14:27:50;;;;;;;11.40;3.40;;;;;;;;;;5114720;28;20440;-65
2022/11/04 14:30:36;;;;;;;10.20;2.80;;;;;;;;;;5115668;28;20440;-66
2022/11/04 14:33:05;;;;;;;12.43;3.93;;;;;;;;;;5114976;28;20437;-66
2022/11/04 14:35:33;;;;;;;7.43;2.80;;;;;;;;;;5114304;28;20920;-66
2022/11/04 14:38:03;;;;;;;3.97;2.80;;;;;;;;;;5114482;28;20538;-67
2022/11/04 14:40:45;;;;;;;7.90;3.07;;;;;;;;;;5114622;28;20516;-66
2022/11/04 14:43:18;;;;;;;4.60;2.60;;;;;;;;;;5114767;27;20479;-66
2022/11/04 14:45:46;;;;;;;8.43;3.33;;;;;;;;;;5114296;28;20437;-65
2022/11/04 14:48:18;;;;;;;10.10;3.37;;;;;;;;;;5113969;28;20985;-65
2022/11/04 14:50:46;;;;;;;8.10;3.57;;;;;;;;;;5114694;28;20429;-66
2022/11/04 14:53:20;;;;;;;15.93;4.10;;;;;;;;;;5113834;28;20642;-65
2022/11/04 14:55:47;;;;;;;5.83;3.13;;;;;;;;;;5114809;28;20503;-66
2022/11/04 14:58:22;;;;;;;4.77;2.83;;;;;;;;;;5114108;28;20451;-65
2022/11/04 15:00:56;;;;;;;10.90;3.90;;;;;;;;;;5115359;28;20825;-66
2022/11/04 15:03:27;;;;;;;7.30;3.17;;;;;;;;;;5114462;28;20459;-67
2022/11/04 15:05:57;;;;;;;8.43;4.07;;;;;;;;;;5114119;28;20948;-66
2022/11/04 15:08:28;;;;;;;9.80;4.30;;;;;;;;;;5113903;28;21069;-66
2022/11/04 15:10:58;;;;;;;10.57;4.73;;;;;;;;;;5114395;28;20440;-67
2022/11/04 15:13:25;;;;;;;11.63;3.83;;;;;;;;;;5114452;28;20483;-65
2022/11/04 15:15:55;;;;;;;14.80;3.57;;;;;;;;;;5113868;28;20450;-65
2022/11/04 15:18:25;;;;;;;6.43;3.63;;;;;;;;;;5113828;28;20530;-66
2022/11/04 15:20:53;;;;;;;10.53;3.40;;;;;;;;;;5114840;28;20502;-66
2022/11/04 15:23:24;;;;;;;7.63;3.40;;;;;;;;;;5113779;28;21012;-66
2022/11/04 15:25:51;;;;;;;6.37;3.83;;;;;;;;;;5114858;28;20492;-66
2022/11/04 15:28:20;;;;;;;9.33;3.70;;;;;;;;;;5113569;28;20470;-65